createdAt,value
2017-01-06T00:01:05.131Z,1034.1
2017-01-06T00:03:37.763Z,1034.1
2017-01-06T00:06:13.907Z,1034.2
2017-01-06T00:09:01.681Z,1034.2
2017-01-06T00:11:44.207Z,1034.1
2017-01-06T00:14:21.342Z,1034.1
2017-01-06T00:16:53.739Z,1034.1
2017-01-06T00:19:26.187Z,1034.1
2017-01-06T00:21:58.584Z,1034.1
2017-01-06T00:24:30.978Z,1034.2
2017-01-06T00:27:03.378Z,1034.1
2017-01-06T00:29:35.858Z,1034.2
2017-01-06T00:32:08.436Z,1034.2
2017-01-06T00:34:41.125Z,1034.1
2017-01-06T00:37:13.513Z,1034.2
2017-01-06T00:39:45.882Z,1034.2
2017-01-06T00:42:50.356Z,1034.2
2017-01-06T00:45:22.734Z,1034.2
2017-01-06T00:47:55.128Z,1034.2
2017-01-06T00:50:27.518Z,1034.2
2017-01-06T00:52:59.915Z,1034.2
2017-01-06T00:55:32.298Z,1034.2
2017-01-06T00:58:04.697Z,1034.2
2017-01-06T01:00:37.240Z,1034.2
2017-01-06T01:03:09.645Z,1034.2
2017-01-06T01:05:42.302Z,1034.2
2017-01-06T01:08:14.677Z,1034.2
2017-01-06T01:10:47.279Z,1034.4
2017-01-06T01:13:19.717Z,1034.4
2017-01-06T01:15:52.100Z,1034.4
2017-01-06T01:18:24.504Z,1034.4
2017-01-06T01:20:56.889Z,1034.4
2017-01-06T01:23:29.283Z,1034.4
2017-01-06T01:26:01.680Z,1034.4
2017-01-06T01:28:34.068Z,1034.5
2017-01-06T01:31:06.458Z,1034.5
2017-01-06T01:33:38.853Z,1034.5
2017-01-06T01:36:11.253Z,1034.5
2017-01-06T01:38:43.655Z,1034.5
2017-01-06T01:41:16.247Z,1034.5
2017-01-06T01:43:48.643Z,1034.4
2017-01-06T01:46:21.066Z,1034.4
2017-01-06T01:48:53.464Z,1034.4
2017-01-06T01:51:25.863Z,1034.5
2017-01-06T01:53:58.260Z,1034.5
2017-01-06T01:56:30.844Z,1034.5
2017-01-06T01:59:03.226Z,1034.6
2017-01-06T02:01:35.627Z,1034.6
2017-01-06T02:04:08.011Z,1034.6
2017-01-06T02:06:40.401Z,1034.6
2017-01-06T02:09:12.770Z,1034.7
2017-01-06T02:11:45.253Z,1034.7
2017-01-06T02:14:17.656Z,1034.7
2017-01-06T02:16:50.047Z,1034.7
2017-01-06T02:19:22.420Z,1034.7
2017-01-06T02:21:54.814Z,1034.7
2017-01-06T02:24:27.185Z,1034.7
2017-01-06T02:26:59.586Z,1034.8
2017-01-06T02:29:32.026Z,1034.7
2017-01-06T02:32:04.428Z,1034.8
2017-01-06T02:34:36.795Z,1034.8
2017-01-06T02:37:09.179Z,1034.8
2017-01-06T02:39:41.557Z,1034.8
2017-01-06T02:42:13.970Z,1034.8
2017-01-06T02:44:46.358Z,1034.9
2017-01-06T02:47:18.737Z,1034.9
2017-01-06T02:49:51.121Z,1034.9
2017-01-06T02:52:23.512Z,1034.8
2017-01-06T02:54:55.917Z,1034.8
2017-01-06T02:57:28.303Z,1034.8
2017-01-06T03:00:00.968Z,1034.8
2017-01-06T03:02:33.332Z,1034.9
2017-01-06T03:05:05.733Z,1034.9
2017-01-06T03:07:38.125Z,1034.9
2017-01-06T03:10:10.511Z,1034.8
2017-01-06T03:12:42.883Z,1034.9
2017-01-06T03:15:15.264Z,1035
2017-01-06T03:17:47.848Z,1035
2017-01-06T03:20:20.226Z,1035
2017-01-06T03:22:52.609Z,1035
2017-01-06T03:25:24.993Z,1035
2017-01-06T03:27:57.395Z,1034.9
2017-01-06T03:30:29.789Z,1035
2017-01-06T03:33:02.177Z,1035
2017-01-06T03:35:34.567Z,1035
2017-01-06T03:38:06.944Z,1035.1
2017-01-06T03:40:39.329Z,1035.1
2017-01-06T03:43:11.712Z,1035.1
2017-01-06T03:45:44.099Z,1035.1
2017-01-06T03:48:16.494Z,1035.1
2017-01-06T03:50:48.873Z,1035.2
2017-01-06T03:53:21.262Z,1035.2
2017-01-06T03:55:53.652Z,1035.3
2017-01-06T03:58:26.044Z,1035.3
2017-01-06T04:00:58.426Z,1035.3
2017-01-06T04:03:30.812Z,1035.3
2017-01-06T04:06:03.194Z,1035.3
2017-01-06T04:08:35.582Z,1035.4
2017-01-06T04:11:07.968Z,1035.4
2017-01-06T04:13:40.347Z,1035.4
2017-01-06T04:16:12.736Z,1035.4
2017-01-06T04:18:45.129Z,1035.4
2017-01-06T04:21:17.525Z,1035.4
2017-01-06T04:23:49.910Z,1035.4
2017-01-06T04:26:22.320Z,1035.4
2017-01-06T04:28:54.713Z,1035.4
2017-01-06T04:31:27.089Z,1035.4
2017-01-06T04:33:59.484Z,1035.5
2017-01-06T04:36:31.856Z,1035.5
2017-01-06T04:39:04.238Z,1035.5
2017-01-06T04:41:36.637Z,1035.5
2017-01-06T04:44:09.043Z,1035.5
2017-01-06T04:46:41.434Z,1035.5
2017-01-06T04:49:13.838Z,1035.5
2017-01-06T04:51:46.220Z,1035.4
2017-01-06T04:54:18.592Z,1035.5
2017-01-06T04:56:50.995Z,1035.4
2017-01-06T04:59:23.397Z,1035.5
2017-01-06T05:01:55.786Z,1035.5
2017-01-06T05:04:28.158Z,1035.5
2017-01-06T05:07:00.581Z,1035.5
2017-01-06T05:09:32.971Z,1035.5
2017-01-06T05:12:05.388Z,1035.6
2017-01-06T05:14:37.761Z,1035.6
2017-01-06T05:17:10.141Z,1035.7
2017-01-06T05:19:42.541Z,1035.6
2017-01-06T05:22:14.923Z,1035.6
2017-01-06T05:24:47.338Z,1035.6
2017-01-06T05:27:19.705Z,1035.7
2017-01-06T05:29:52.097Z,1035.7
2017-01-06T05:32:24.485Z,1035.7
2017-01-06T05:34:56.877Z,1035.7
2017-01-06T05:37:29.272Z,1035.7
2017-01-06T05:40:01.665Z,1035.7
2017-01-06T05:42:34.070Z,1035.8
2017-01-06T05:45:06.456Z,1035.8
2017-01-06T05:47:38.851Z,1035.8
2017-01-06T05:50:11.239Z,1035.8
2017-01-06T05:52:43.621Z,1035.8
2017-01-06T05:55:15.998Z,1035.8
2017-01-06T05:57:48.366Z,1035.8
2017-01-06T06:00:20.758Z,1035.8
2017-01-06T06:02:53.154Z,1035.8
2017-01-06T06:05:25.529Z,1035.8
2017-01-06T06:07:57.928Z,1035.7
2017-01-06T06:10:30.307Z,1035.7
2017-01-06T06:13:02.706Z,1035.7
2017-01-06T06:15:35.104Z,1035.7
2017-01-06T06:18:07.480Z,1035.7
2017-01-06T06:20:39.887Z,1035.7
2017-01-06T06:23:12.279Z,1035.7
2017-01-06T06:25:44.669Z,1035.8
2017-01-06T06:28:23.744Z,1035.8
2017-01-06T06:30:57.476Z,1035.8
2017-01-06T06:33:39.457Z,1035.7
2017-01-06T06:36:15.856Z,1035.7
2017-01-06T06:39:04.579Z,1035.7
2017-01-06T06:41:41.921Z,1035.7
2017-01-06T06:44:27.279Z,1035.8
2017-01-06T06:47:16.013Z,1035.8
2017-01-06T06:49:48.417Z,1035.8
2017-01-06T06:52:20.809Z,1035.8
2017-01-06T06:54:53.190Z,1035.9
2017-01-06T06:57:25.571Z,1035.9
2017-01-06T06:59:57.955Z,1035.9
2017-01-06T07:02:30.343Z,1035.9
2017-01-06T07:05:03.148Z,1035.9
2017-01-06T07:07:35.562Z,1036
2017-01-06T07:10:07.942Z,1036
2017-01-06T07:12:40.323Z,1035.9
2017-01-06T07:15:12.706Z,1035.9
2017-01-06T07:17:45.104Z,1035.9
2017-01-06T07:20:17.508Z,1035.9
2017-01-06T07:22:49.878Z,1036
2017-01-06T07:25:22.271Z,1036
2017-01-06T07:27:54.658Z,1036
2017-01-06T07:30:27.052Z,1036
2017-01-06T07:32:59.430Z,1036
2017-01-06T07:35:31.829Z,1035.9
2017-01-06T07:38:04.215Z,1035.9
2017-01-06T07:40:36.615Z,1036
2017-01-06T07:43:09.017Z,1035.9
2017-01-06T07:45:41.408Z,1035.9
2017-01-06T07:48:13.812Z,1035.9
2017-01-06T07:50:46.190Z,1036
2017-01-06T07:53:18.603Z,1036
2017-01-06T07:55:50.992Z,1036
2017-01-06T07:58:23.382Z,1036
2017-01-06T08:00:55.771Z,1036.1
2017-01-06T08:03:28.158Z,1036
2017-01-06T08:06:00.553Z,1036
2017-01-06T08:08:32.937Z,1036
2017-01-06T08:11:05.339Z,1036.1
2017-01-06T08:13:37.718Z,1036.1
2017-01-06T08:16:10.151Z,1036.1
2017-01-06T08:18:42.560Z,1036.1
2017-01-06T08:21:14.960Z,1036.1
2017-01-06T08:23:47.981Z,1036.1
2017-01-06T08:26:22.500Z,1036.1
2017-01-06T08:29:10.680Z,1036.1
2017-01-06T08:31:51.637Z,1036.2
2017-01-06T08:34:37.409Z,1036.3
2017-01-06T08:37:19.336Z,1036.3
2017-01-06T08:40:02.037Z,1036.2
2017-01-06T08:42:49.855Z,1036.3
2017-01-06T08:45:34.238Z,1036.2
2017-01-06T08:48:10.454Z,1036.2
2017-01-06T08:50:50.554Z,1036.2
2017-01-06T08:53:29.339Z,1036.2
2017-01-06T08:56:13.762Z,1036.2
2017-01-06T08:58:51.906Z,1036.2
2017-01-06T09:01:24.396Z,1036.3
2017-01-06T09:03:56.795Z,1036.3
2017-01-06T09:06:29.270Z,1036.3
2017-01-06T09:09:01.767Z,1036.4
2017-01-06T09:11:34.267Z,1036.5
2017-01-06T09:14:06.713Z,1036.5
2017-01-06T09:16:39.193Z,1036.5
2017-01-06T09:19:11.642Z,1036.5
2017-01-06T09:21:44.092Z,1036.4
2017-01-06T09:24:16.573Z,1036.4
2017-01-06T09:26:49.049Z,1036.4
2017-01-06T09:29:21.492Z,1036.3
2017-01-06T09:31:53.958Z,1036.4
2017-01-06T09:34:26.462Z,1036.4
2017-01-06T09:36:58.914Z,1036.4
2017-01-06T09:39:31.349Z,1036.4
2017-01-06T09:42:03.773Z,1036.4
2017-01-06T09:44:36.152Z,1036.4
2017-01-06T09:47:08.541Z,1036.4
2017-01-06T09:49:40.912Z,1036.4
2017-01-06T09:52:13.319Z,1036.3
2017-01-06T09:54:45.689Z,1036.3
2017-01-06T09:57:18.089Z,1036.3
2017-01-06T09:59:50.477Z,1036.3
2017-01-06T10:02:22.869Z,1036.2
2017-01-06T10:04:55.283Z,1036.2
2017-01-06T10:07:27.657Z,1036.2
2017-01-06T10:10:00.046Z,1036.2
2017-01-06T10:12:32.418Z,1036.1
2017-01-06T10:15:04.823Z,1036.1
2017-01-06T10:17:37.274Z,1036.1
2017-01-06T10:20:09.752Z,1036.1
2017-01-06T10:22:42.139Z,1036.1
2017-01-06T10:25:14.535Z,1036.1
2017-01-06T10:27:46.945Z,1036.1
2017-01-06T10:30:19.341Z,1036
2017-01-06T10:32:51.749Z,1036.1
2017-01-06T10:35:24.142Z,1036.1
2017-01-06T10:37:56.544Z,1036.1
2017-01-06T10:40:28.923Z,1036.1
2017-01-06T10:43:01.324Z,1036
2017-01-06T10:45:33.715Z,1036
2017-01-06T10:48:06.159Z,1036
2017-01-06T10:50:38.539Z,1036.1
2017-01-06T10:53:10.941Z,1036
2017-01-06T10:55:43.333Z,1036
2017-01-06T10:58:15.743Z,1036
2017-01-06T11:00:48.120Z,1035.9
2017-01-06T11:03:20.512Z,1036
2017-01-06T11:05:52.905Z,1036
2017-01-06T11:08:25.288Z,1035.9
2017-01-06T11:10:57.689Z,1035.9
2017-01-06T11:13:30.093Z,1035.8
2017-01-06T11:16:02.488Z,1035.8
2017-01-06T11:18:34.887Z,1035.8
2017-01-06T11:21:07.287Z,1035.8
2017-01-06T11:23:39.843Z,1035.8
2017-01-06T11:26:12.239Z,1035.8
2017-01-06T11:28:44.629Z,1035.8
2017-01-06T11:31:17.013Z,1035.7
2017-01-06T11:33:49.390Z,1035.7
2017-01-06T11:36:21.787Z,1035.8
2017-01-06T11:38:54.176Z,1035.7
2017-01-06T11:41:26.589Z,1035.7
2017-01-06T11:43:58.975Z,1035.7
2017-01-06T11:46:31.392Z,1035.6
2017-01-06T11:49:03.936Z,1035.5
2017-01-06T11:51:36.362Z,1035.5
2017-01-06T11:54:08.762Z,1035.5
2017-01-06T11:56:41.145Z,1035.4
2017-01-06T11:59:13.554Z,1035.4
2017-01-06T12:01:45.936Z,1035.4
2017-01-06T12:04:18.333Z,1035.4
2017-01-06T12:06:50.736Z,1035.3
2017-01-06T12:09:23.127Z,1035.3
2017-01-06T12:11:55.510Z,1035.3
2017-01-06T12:14:27.893Z,1035.3
2017-01-06T12:17:00.300Z,1035.3
2017-01-06T12:19:32.677Z,1035.2
2017-01-06T12:22:05.078Z,1035.2
2017-01-06T12:24:37.514Z,1035.2
2017-01-06T12:27:09.923Z,1035.2
2017-01-06T12:29:42.319Z,1035.2
2017-01-06T12:32:14.700Z,1035.2
2017-01-06T12:34:47.084Z,1035.1
2017-01-06T12:37:19.620Z,1035.1
2017-01-06T12:39:52.023Z,1035.2
2017-01-06T12:42:24.404Z,1035.2
2017-01-06T12:44:56.785Z,1035.2
2017-01-06T12:47:29.165Z,1035.2
2017-01-06T12:50:01.623Z,1035.1
2017-01-06T12:52:33.992Z,1035.1
2017-01-06T12:55:06.386Z,1035
2017-01-06T12:57:38.784Z,1035
2017-01-06T13:00:11.174Z,1034.9
2017-01-06T13:02:43.627Z,1034.9
2017-01-06T13:05:16.026Z,1034.8
2017-01-06T13:07:48.433Z,1034.8
2017-01-06T13:10:20.822Z,1034.8
2017-01-06T13:12:53.215Z,1034.7
2017-01-06T13:15:25.609Z,1034.7
2017-01-06T13:17:57.999Z,1034.7
2017-01-06T13:20:30.393Z,1034.8
2017-01-06T13:23:02.811Z,1034.7
2017-01-06T13:25:35.222Z,1034.7
2017-01-06T13:28:07.615Z,1034.8
2017-01-06T13:30:40.049Z,1034.8
2017-01-06T13:33:12.431Z,1034.8
2017-01-06T13:35:44.859Z,1034.8
2017-01-06T13:38:17.261Z,1034.9
2017-01-06T13:40:49.644Z,1034.9
2017-01-06T13:43:22.298Z,1034.8
2017-01-06T13:45:54.917Z,1034.8
2017-01-06T13:48:27.288Z,1034.8
2017-01-06T13:50:59.711Z,1034.8
2017-01-06T13:53:32.104Z,1034.8
2017-01-06T13:56:04.478Z,1034.8
2017-01-06T13:58:36.878Z,1034.9
2017-01-06T14:01:09.289Z,1034.9
2017-01-06T14:03:41.680Z,1034.9
2017-01-06T14:06:14.066Z,1034.9
2017-01-06T14:08:46.451Z,1034.8
2017-01-06T14:11:18.857Z,1034.8
2017-01-06T14:13:51.241Z,1034.8
2017-01-06T14:16:23.605Z,1034.7
2017-01-06T14:18:56.005Z,1034.7
2017-01-06T14:21:28.399Z,1034.8
2017-01-06T14:24:00.786Z,1034.7
2017-01-06T14:26:33.615Z,1034.7
2017-01-06T14:29:06.040Z,1034.6
2017-01-06T14:31:38.424Z,1034.7
2017-01-06T14:34:10.814Z,1034.6
2017-01-06T14:36:43.195Z,1034.6
2017-01-06T14:39:15.606Z,1034.6
2017-01-06T14:41:48.030Z,1034.6
2017-01-06T14:44:20.423Z,1034.6
2017-01-06T14:46:52.808Z,1034.5
2017-01-06T14:49:25.209Z,1034.5
2017-01-06T14:51:57.619Z,1034.5
2017-01-06T14:54:30.003Z,1034.6
2017-01-06T14:57:02.420Z,1034.7
2017-01-06T14:59:34.839Z,1034.6
2017-01-06T15:02:07.242Z,1034.6
2017-01-06T15:04:39.608Z,1034.5
2017-01-06T15:07:12.019Z,1034.5
2017-01-06T15:09:44.397Z,1034.5
2017-01-06T15:12:16.821Z,1034.5
2017-01-06T15:14:49.215Z,1034.5
2017-01-06T15:17:21.690Z,1034.6
2017-01-06T15:19:54.080Z,1034.5
2017-01-06T15:22:26.469Z,1034.5
2017-01-06T15:24:58.864Z,1034.6
2017-01-06T15:27:31.241Z,1034.6
2017-01-06T15:30:03.622Z,1034.6
2017-01-06T15:32:36.011Z,1034.6
2017-01-06T15:35:08.397Z,1034.6
2017-01-06T15:37:40.807Z,1034.6
2017-01-06T15:40:13.191Z,1034.6
2017-01-06T15:42:45.590Z,1034.6
2017-01-06T15:45:17.961Z,1034.5
2017-01-06T15:47:50.357Z,1034.6
2017-01-06T15:50:22.739Z,1034.6
2017-01-06T15:52:55.115Z,1034.7
2017-01-06T15:55:27.518Z,1034.7
2017-01-06T15:57:59.890Z,1034.7
2017-01-06T16:00:32.269Z,1034.6
2017-01-06T16:03:04.670Z,1034.6
2017-01-06T16:05:37.063Z,1034.5
2017-01-06T16:08:09.455Z,1034.6
2017-01-06T16:10:41.821Z,1034.6
2017-01-06T16:13:14.233Z,1034.5
2017-01-06T16:15:46.618Z,1034.5
2017-01-06T16:18:19.009Z,1034.5
2017-01-06T16:20:51.423Z,1034.4
2017-01-06T16:23:23.817Z,1034.4
2017-01-06T16:25:56.243Z,1034.4
2017-01-06T16:28:28.650Z,1034.4
2017-01-06T16:31:01.052Z,1034.3
2017-01-06T16:33:33.445Z,1034.3
2017-01-06T16:36:05.824Z,1034.3
2017-01-06T16:38:38.212Z,1034.2
2017-01-06T16:41:10.604Z,1034.3
2017-01-06T16:43:43.002Z,1034.3
2017-01-06T16:46:15.406Z,1034.2
2017-01-06T16:48:47.815Z,1034.3
2017-01-06T16:51:20.249Z,1034.3
2017-01-06T16:53:52.843Z,1034.2
2017-01-06T16:56:25.409Z,1034.2
2017-01-06T16:58:57.828Z,1034
2017-01-06T17:01:30.215Z,1033.9
2017-01-06T17:04:02.706Z,1033.8
2017-01-06T17:06:35.258Z,1033.8
2017-01-06T17:09:07.662Z,1033.7
2017-01-06T17:11:40.168Z,1033.7
2017-01-06T17:14:12.574Z,1033.6
2017-01-06T17:16:45.691Z,1033.6
2017-01-06T17:19:18.089Z,1033.5
2017-01-06T17:21:50.472Z,1033.5
2017-01-06T17:24:22.858Z,1033.5
2017-01-06T17:26:55.267Z,1033.6
2017-01-06T17:29:27.650Z,1033.6
2017-01-06T17:32:00.028Z,1033.6
2017-01-06T17:34:32.427Z,1033.5
2017-01-06T17:37:04.804Z,1033.5
2017-01-06T17:39:37.196Z,1033.5
2017-01-06T17:42:09.699Z,1033.5
2017-01-06T17:44:42.100Z,1033.5
2017-01-06T17:47:14.471Z,1033.6
2017-01-06T17:49:46.869Z,1033.6
2017-01-06T17:52:19.259Z,1033.6
2017-01-06T17:54:51.675Z,1033.6
2017-01-06T17:57:24.494Z,1033.6
2017-01-06T17:59:56.879Z,1033.7
2017-01-06T18:02:29.281Z,1033.7
2017-01-06T18:05:01.670Z,1033.7
2017-01-06T18:07:34.049Z,1033.7
2017-01-06T18:10:06.424Z,1033.6
2017-01-06T18:12:39.007Z,1033.5
2017-01-06T18:15:11.391Z,1033.5
2017-01-06T18:17:43.768Z,1033.4
2017-01-06T18:20:16.168Z,1033.4
2017-01-06T18:22:48.548Z,1033.4
2017-01-06T18:25:20.933Z,1033.3
2017-01-06T18:27:53.316Z,1033.3
2017-01-06T18:30:25.705Z,1033.2
2017-01-06T18:32:58.104Z,1033.3
2017-01-06T18:35:30.691Z,1033.2
2017-01-06T18:38:03.068Z,1033.2
2017-01-06T18:40:35.474Z,1033.2
2017-01-06T18:43:07.845Z,1033.2
2017-01-06T18:45:40.231Z,1033.1
2017-01-06T18:48:12.629Z,1033.1
2017-01-06T18:50:45.039Z,1033.2
2017-01-06T18:53:17.413Z,1033.2
2017-01-06T18:55:49.809Z,1033.1
2017-01-06T18:58:22.200Z,1033.1
2017-01-06T19:00:54.607Z,1033.1
2017-01-06T19:03:26.992Z,1033.1
2017-01-06T19:05:59.377Z,1033.1
2017-01-06T19:08:31.741Z,1033
2017-01-06T19:11:04.142Z,1033
2017-01-06T19:13:36.514Z,1033
2017-01-06T19:16:08.903Z,1033
2017-01-06T19:18:41.287Z,1032.9
2017-01-06T19:21:13.663Z,1032.9
2017-01-06T19:23:46.047Z,1032.8
2017-01-06T19:26:18.452Z,1032.8
2017-01-06T19:28:50.835Z,1032.7
2017-01-06T19:31:23.269Z,1032.7
2017-01-06T19:33:55.668Z,1032.8
2017-01-06T19:36:28.053Z,1032.8
2017-01-06T19:39:00.440Z,1032.8
2017-01-06T19:41:32.843Z,1032.8
2017-01-06T19:44:05.243Z,1032.8
2017-01-06T19:46:37.643Z,1032.8
2017-01-06T19:49:10.010Z,1032.7
2017-01-06T19:51:42.401Z,1032.7
2017-01-06T19:54:14.818Z,1032.8
2017-01-06T19:56:47.204Z,1032.8
2017-01-06T19:59:19.593Z,1032.7
2017-01-06T20:01:51.988Z,1032.7
2017-01-06T20:04:24.369Z,1032.6
2017-01-06T20:06:56.944Z,1032.6
2017-01-06T20:09:29.347Z,1032.6
2017-01-06T20:12:01.745Z,1032.6
2017-01-06T20:14:34.122Z,1032.5
2017-01-06T20:17:06.520Z,1032.5
2017-01-06T20:19:38.907Z,1032.5
2017-01-06T20:22:11.311Z,1032.5
2017-01-06T20:24:43.699Z,1032.5
2017-01-06T20:27:16.090Z,1032.5
2017-01-06T20:29:48.476Z,1032.5
2017-01-06T20:32:20.870Z,1032.4
2017-01-06T20:34:53.273Z,1032.5
2017-01-06T20:37:25.670Z,1032.4
2017-01-06T20:39:58.068Z,1032.5
2017-01-06T20:42:30.452Z,1032.4
2017-01-06T20:45:02.845Z,1032.4
2017-01-06T20:47:35.273Z,1032.4
2017-01-06T20:50:07.657Z,1032.4
2017-01-06T20:52:40.061Z,1032.2
2017-01-06T20:55:12.438Z,1032.2
2017-01-06T20:57:44.830Z,1032.2
2017-01-06T21:00:17.209Z,1032.2
2017-01-06T21:02:49.591Z,1032.2
2017-01-06T21:05:21.986Z,1032.1
2017-01-06T21:07:54.372Z,1032.1
2017-01-06T21:10:26.754Z,1032
2017-01-06T21:12:59.140Z,1031.9
2017-01-06T21:15:31.533Z,1031.9
2017-01-06T21:18:03.934Z,1031.8
2017-01-06T21:20:36.325Z,1031.8
2017-01-06T21:23:08.740Z,1031.9
2017-01-06T21:25:41.115Z,1031.9
2017-01-06T21:28:13.493Z,1031.9
2017-01-06T21:30:47.166Z,1031.8
2017-01-06T21:33:21.708Z,1031.8
2017-01-06T21:35:54.104Z,1031.9
2017-01-06T21:38:27.097Z,1031.8
2017-01-06T21:41:07.388Z,1031.8
2017-01-06T21:43:43.779Z,1031.8
2017-01-06T21:46:25.713Z,1031.8
2017-01-06T21:49:15.164Z,1031.8
2017-01-06T21:51:58.675Z,1031.8
2017-01-06T21:54:37.602Z,1031.7
2017-01-06T21:57:16.722Z,1031.7
2017-01-06T21:59:56.209Z,1031.6
2017-01-06T22:02:37.820Z,1031.5
2017-01-06T22:05:21.612Z,1031.5
2017-01-06T22:08:02.835Z,1031.6
2017-01-06T22:10:39.535Z,1031.4
2017-01-06T22:13:16.546Z,1031.3
2017-01-06T22:15:52.515Z,1031.4
2017-01-06T22:18:29.518Z,1031.4
2017-01-06T22:21:02.800Z,1031.3
2017-01-06T22:23:35.542Z,1031.2
2017-01-06T22:26:08.745Z,1031.2
2017-01-06T22:28:41.931Z,1031.2
2017-01-06T22:31:14.680Z,1031.2
2017-01-06T22:33:47.088Z,1031.2
2017-01-06T22:36:19.487Z,1031.2
2017-01-06T22:38:51.897Z,1031.2
2017-01-06T22:42:07.593Z,1031.2
2017-01-06T22:45:14.937Z,1031.1
2017-01-06T22:47:47.434Z,1031.1
2017-01-06T22:50:19.864Z,1031.1
2017-01-06T22:52:52.296Z,1031.1
2017-01-06T22:55:24.675Z,1031
2017-01-06T22:57:57.080Z,1031.1
2017-01-06T23:00:29.582Z,1031.1
2017-01-06T23:03:02.239Z,1031.1
2017-01-06T23:05:34.689Z,1031.1
2017-01-06T23:08:07.124Z,1031.1
2017-01-06T23:10:39.557Z,1031.2
2017-01-06T23:13:12.191Z,1031.1
2017-01-06T23:15:44.753Z,1031.1
2017-01-06T23:18:17.192Z,1030.9
2017-01-06T23:20:49.599Z,1030.9
2017-01-06T23:23:22.030Z,1030.8
2017-01-06T23:25:54.437Z,1030.7
2017-01-06T23:28:27.056Z,1030.6
2017-01-06T23:30:59.526Z,1030.6
2017-01-06T23:33:31.969Z,1030.5
2017-01-06T23:36:04.562Z,1030.4
2017-01-06T23:38:36.976Z,1030.4
2017-01-06T23:41:09.548Z,1030.4
2017-01-06T23:43:41.932Z,1030.3
2017-01-06T23:46:14.332Z,1030.3
2017-01-06T23:48:46.923Z,1030.2
2017-01-06T23:51:19.316Z,1030.2
2017-01-06T23:53:51.713Z,1030.3
2017-01-06T23:56:24.117Z,1030.2
2017-01-06T23:58:56.516Z,1030.2
